Time;durP1;ratioP1;P1;durP2;ratioP2;P2;SDS_P1;SDS_P2;PMS_P1;PMS_P2;Temp;Humidity;BMP_temperature;BMP_pressure;BME280_temperature;BME280_humidity;BME280_pressure;Samples;Min_cycle;Max_cycle;Signal;HPM_P1;HPM_P2
2023/05/30 00:00:52;;;;;;;11.50;3.17;;;11.60;99.90;;;;;;5075828;28;20115;-73
2023/05/30 00:03:18;;;;;;;9.43;3.60;;;11.70;99.90;;;;;;5074429;28;20147;-73
2023/05/30 00:05:44;;;;;;;13.60;2.97;;;11.60;99.90;;;;;;5075829;28;20056;-73
2023/05/30 00:08:09;;;;;;;7.97;2.90;;;11.60;99.90;;;;;;5074634;28;20093;-73
2023/05/30 00:10:35;;;;;;;10.57;2.60;;;11.60;99.90;;;;;;5074787;28;20484;-73
2023/05/30 00:13:02;;;;;;;15.93;3.37;;;11.60;99.90;;;;;;5075575;28;20131;-74
2023/05/30 00:15:28;;;;;;;9.83;3.07;;;11.60;99.90;;;;;;5074695;28;20044;-73
2023/05/30 00:17:54;;;;;;;10.90;3.17;;;11.60;99.90;;;;;;5075628;28;20377;-73
2023/05/30 00:20:23;;;;;;;7.90;2.90;;;11.60;99.90;;;;;;5087837;28;20312;-73
2023/05/30 00:22:49;;;;;;;9.87;3.67;;;11.60;99.90;;;;;;5115857;28;20777;-73
2023/05/30 00:25:16;;;;;;;11.87;3.10;;;11.60;99.90;;;;;;5115742;28;20288;-73
2023/05/30 00:27:41;;;;;;;12.07;4.20;;;11.60;99.90;;;;;;5116030;28;20327;-73
2023/05/30 00:30:07;;;;;;;11.67;3.00;;;11.60;99.90;;;;;;5080823;28;20298;-73
2023/05/30 00:32:34;;;;;;;11.57;2.73;;;11.60;99.90;;;;;;5115844;28;20054;-73
2023/05/30 00:35:00;;;;;;;11.40;2.73;;;11.60;99.90;;;;;;5116036;28;20055;-73
2023/05/30 00:37:26;;;;;;;13.23;3.70;;;11.60;99.90;;;;;;5115467;28;20274;-73
2023/05/30 00:39:51;;;;;;;12.33;3.23;;;11.60;99.90;;;;;;5096545;28;20126;-73
2023/05/30 00:42:17;;;;;;;10.87;2.93;;;11.60;99.90;;;;;;5115463;28;20052;-73
2023/05/30 00:44:43;;;;;;;11.50;3.37;;;11.60;99.90;;;;;;5115676;28;20039;-73
2023/05/30 00:47:12;;;;;;;8.03;2.93;;;11.60;99.90;;;;;;5115310;28;20055;-73
2023/05/30 00:49:38;;;;;;;12.40;3.50;;;11.60;99.90;;;;;;5097546;28;20297;-73
2023/05/30 00:52:04;;;;;;;11.93;3.53;;;11.60;99.90;;;;;;5115399;28;20337;-73
2023/05/30 00:54:31;;;;;;;8.50;3.00;;;11.50;99.90;;;;;;5115313;28;20055;-73
2023/05/30 00:56:57;;;;;;;11.80;3.63;;;11.60;99.90;;;;;;5097489;28;20304;-73
2023/05/30 00:59:23;;;;;;;9.30;2.63;;;11.50;99.90;;;;;;5096996;28;20760;-73
2023/05/30 01:01:50;;;;;;;9.73;2.90;;;11.60;99.90;;;;;;5115380;28;20046;-73
2023/05/30 01:04:15;;;;;;;12.60;3.53;;;11.60;99.90;;;;;;5115102;28;20280;-73
2023/05/30 01:06:41;;;;;;;12.37;3.23;;;11.60;99.90;;;;;;5115279;28;20368;-73
2023/05/30 01:09:08;;;;;;;9.50;3.07;;;11.50;99.90;;;;;;5114670;28;20144;-74
2023/05/30 01:11:45;;;;;;;10.73;3.17;;;11.50;99.90;;;;;;5115159;28;20055;-73
2023/05/30 01:14:11;;;;;;;21.83;3.40;;;11.50;99.90;;;;;;5096665;28;20297;-73
2023/05/30 01:16:46;;;;;;;11.43;2.60;;;11.50;99.90;;;;;;5115055;28;20282;-73
2023/05/30 01:19:15;;;;;;;10.70;2.90;;;11.50;99.90;;;;;;5096427;28;20040;-73
2023/05/30 01:21:42;;;;;;;11.27;3.13;;;11.50;99.90;;;;;;5130437;27;20679;-73
2023/05/30 01:24:26;;;;;;;11.87;3.43;;;11.50;99.90;;;;;;5097039;28;20325;-73
2023/05/30 01:27:22;;;;;;;8.73;3.00;;;11.50;99.90;;;;;;5113996;28;20826;-73
2023/05/30 01:29:50;;;;;;;8.83;3.00;;;11.50;99.90;;;;;;5096930;28;20765;-73
2023/05/30 01:32:17;;;;;;;10.87;2.90;;;11.50;99.90;;;;;;5096394;28;20282;-73
2023/05/30 01:34:43;;;;;;;9.07;2.67;;;11.50;99.90;;;;;;5096768;28;20342;-73
2023/05/30 01:37:08;;;;;;;10.07;2.77;;;11.50;99.90;;;;;;5096770;28;20289;-73
2023/05/30 01:39:34;;;;;;;11.00;2.90;;;11.50;99.90;;;;;;5096468;28;20489;-73
2023/05/30 01:42:03;;;;;;;12.13;2.90;;;11.50;99.90;;;;;;5114803;28;20050;-73
2023/05/30 01:45:07;;;;;;;14.43;3.90;;;11.50;99.90;;;;;;5114244;28;20096;-73
2023/05/30 01:47:48;;;;;;;10.50;2.83;;;11.50;99.90;;;;;;5096312;28;20285;-73
2023/05/30 01:50:18;;;;;;;13.10;3.23;;;11.50;99.90;;;;;;5095454;28;20777;-74
2023/05/30 01:52:50;;;;;;;12.50;3.40;;;11.50;99.90;;;;;;5096219;28;20281;-73
2023/05/30 01:55:18;;;;;;;8.40;2.60;;;11.50;99.90;;;;;;5114270;28;20269;-73
2023/05/30 01:57:48;;;;;;;10.43;2.80;;;11.50;99.90;;;;;;5096574;28;20317;-73
2023/05/30 02:00:15;;;;;;;9.33;2.83;;;11.60;99.90;;;;;;5095856;28;20297;-74
2023/05/30 02:02:45;;;;;;;13.23;2.73;;;11.60;99.90;;;;;;5096369;28;20699;-73
2023/05/30 02:05:11;;;;;;;13.17;2.93;;;11.60;99.90;;;;;;5113856;28;20305;-74
2023/05/30 02:07:37;;;;;;;13.40;2.73;;;11.60;99.90;;;;;;5113852;28;20613;-74
2023/05/30 02:10:03;;;;;;;11.27;3.03;;;11.60;99.90;;;;;;5114217;28;20043;-72
2023/05/30 02:12:29;;;;;;;12.60;3.03;;;11.60;99.90;;;;;;5113780;28;20068;-73
2023/05/30 02:14:55;;;;;;;12.00;3.40;;;11.60;99.90;;;;;;5096144;28;20632;-73
2023/05/30 02:17:22;;;;;;;12.53;3.33;;;11.60;99.90;;;;;;5113618;28;20796;-73
2023/05/30 02:19:50;;;;;;;9.70;2.40;;;11.60;99.90;;;;;;5113871;28;20362;-73
2023/05/30 02:22:17;;;;;;;12.50;3.43;;;11.60;99.90;;;;;;5113643;28;20360;-74
2023/05/30 02:24:43;;;;;;;11.47;3.20;;;11.60;99.90;;;;;;5113782;28;20293;-73
2023/05/30 02:27:09;;;;;;;12.80;3.17;;;11.60;99.90;;;;;;5095985;28;20281;-73
2023/05/30 02:29:35;;;;;;;11.33;3.87;;;11.60;99.90;;;;;;5113548;28;20156;-73
2023/05/30 02:32:00;;;;;;;9.37;3.17;;;11.60;99.90;;;;;;5113744;28;20116;-73
2023/05/30 02:34:26;;;;;;;19.23;4.43;;;11.60;99.90;;;;;;5129234;27;20042;-73
2023/05/30 02:36:52;;;;;;;11.73;3.50;;;11.60;99.90;;;;;;5113287;28;20043;-73
2023/05/30 02:39:17;;;;;;;12.73;3.30;;;11.60;99.90;;;;;;5129411;27;20048;-74
2023/05/30 02:41:43;;;;;;;11.77;3.03;;;11.60;99.90;;;;;;5112981;28;20067;-73
2023/05/30 02:44:09;;;;;;;13.87;3.77;;;11.60;99.90;;;;;;5095759;28;20047;-73
2023/05/30 02:46:35;;;;;;;12.20;3.17;;;11.60;99.90;;;;;;5078290;28;20039;-73
2023/05/30 02:49:01;;;;;;;12.33;4.13;;;11.60;99.90;;;;;;5095720;28;20036;-73
2023/05/30 02:51:27;;;;;;;13.20;3.70;;;11.60;99.90;;;;;;5095229;28;20321;-73
2023/05/30 02:53:53;;;;;;;11.43;2.83;;;11.60;99.90;;;;;;5113451;28;20694;-73
2023/05/30 02:56:20;;;;;;;12.47;3.90;;;11.60;99.90;;;;;;5113261;28;20047;-75
2023/05/30 02:58:46;;;;;;;14.20;3.87;;;11.60;99.90;;;;;;5113374;28;20052;-74
2023/05/30 03:01:12;;;;;;;13.20;4.07;;;11.60;99.90;;;;;;5113743;28;20308;-73
2023/05/30 03:03:37;;;;;;;19.10;3.47;;;11.60;99.90;;;;;;5117328;28;20407;-73
2023/05/30 03:06:04;;;;;;;16.57;3.40;;;11.60;99.90;;;;;;5133669;27;20087;-73
2023/05/30 03:08:31;;;;;;;16.83;3.90;;;11.60;99.90;;;;;;5117362;28;20444;-73
2023/05/30 03:10:56;;;;;;;10.37;3.10;;;11.60;99.90;;;;;;5099330;28;20270;-73
2023/05/30 03:13:22;;;;;;;13.37;3.13;;;11.60;99.90;;;;;;5117180;28;20364;-73
2023/05/30 03:15:48;;;;;;;15.03;4.30;;;11.70;99.90;;;;;;5117566;28;20101;-74
2023/05/30 03:18:14;;;;;;;13.20;3.70;;;11.70;99.90;;;;;;5117345;28;20047;-73
2023/05/30 03:20:40;;;;;;;12.30;3.07;;;11.70;99.90;;;;;;5116612;28;20063;-73
2023/05/30 03:23:06;;;;;;;13.00;3.77;;;11.70;99.90;;;;;;5117215;28;20339;-73
2023/05/30 03:25:32;;;;;;;10.77;2.97;;;11.70;99.90;;;;;;5115810;28;20051;-73
2023/05/30 03:27:58;;;;;;;18.00;4.13;;;11.70;99.90;;;;;;5099233;28;20043;-73
2023/05/30 03:30:26;;;;;;;15.63;4.27;;;11.60;99.90;;;;;;5098991;28;20293;-73
2023/05/30 03:32:53;;;;;;;17.87;3.93;;;11.70;99.90;;;;;;5082898;28;20373;-73
2023/05/30 03:35:19;;;;;;;13.23;3.63;;;11.60;99.90;;;;;;5117037;28;20633;-73
2023/05/30 03:37:45;;;;;;;15.53;3.63;;;11.60;99.90;;;;;;5116709;28;20354;-73
2023/05/30 03:40:11;;;;;;;13.37;4.10;;;11.60;99.90;;;;;;5116833;28;20301;-73
2023/05/30 03:42:37;;;;;;;15.23;3.23;;;11.70;99.90;;;;;;5098588;28;20048;-73
2023/05/30 03:45:03;;;;;;;15.90;4.10;;;11.70;99.90;;;;;;5098936;28;20292;-73
2023/05/30 03:47:29;;;;;;;13.80;3.77;;;11.70;99.90;;;;;;5098339;28;20273;-74
2023/05/30 03:49:54;;;;;;;15.53;4.50;;;11.70;99.90;;;;;;5132939;27;20400;-73
2023/05/30 03:52:20;;;;;;;12.00;2.90;;;11.70;99.90;;;;;;5116744;28;20052;-74
2023/05/30 03:54:46;;;;;;;13.90;3.43;;;11.70;99.90;;;;;;5116422;28;20431;-73
2023/05/30 03:57:11;;;;;;;12.10;3.60;;;11.70;99.90;;;;;;5116673;28;20047;-73
2023/05/30 03:59:37;;;;;;;15.90;3.23;;;11.70;99.90;;;;;;5081488;28;20047;-74
2023/05/30 04:02:03;;;;;;;12.07;3.33;;;11.80;99.90;;;;;;5116565;28;20056;-74
2023/05/30 04:04:29;;;;;;;12.57;3.10;;;11.80;99.90;;;;;;5098236;28;20487;-74
2023/05/30 04:06:55;;;;;;;14.13;3.70;;;11.80;99.90;;;;;;5098161;28;20044;-73
2023/05/30 04:09:21;;;;;;;12.03;3.47;;;11.80;99.90;;;;;;5097969;28;20304;-73
2023/05/30 04:11:46;;;;;;;15.03;3.47;;;11.80;99.90;;;;;;5081194;28;20055;-73
2023/05/30 04:14:12;;;;;;;10.27;3.60;;;11.80;99.90;;;;;;5115823;28;20039;-73
2023/05/30 04:16:38;;;;;;;9.37;3.00;;;11.80;99.90;;;;;;5115949;28;20054;-73
2023/05/30 04:19:03;;;;;;;11.70;3.60;;;11.80;99.90;;;;;;5115951;28;20044;-73
2023/05/30 04:21:29;;;;;;;10.30;3.27;;;11.90;99.90;;;;;;5115476;28;20094;-73
2023/05/30 04:23:55;;;;;;;13.17;3.50;;;11.90;99.90;;;;;;5097658;28;20047;-73
2023/05/30 04:26:22;;;;;;;14.40;4.40;;;11.90;99.90;;;;;;5098139;28;20050;-73
2023/05/30 04:28:50;;;;;;;14.97;3.23;;;11.90;99.90;;;;;;5115855;28;20051;-73
2023/05/30 04:31:15;;;;;;;10.90;3.30;;;12.00;99.90;;;;;;5116102;28;20278;-73
2023/05/30 04:33:45;;;;;;;15.03;4.03;;;12.00;99.90;;;;;;5115686;28;20343;-73
2023/05/30 04:36:18;;;;;;;14.77;3.27;;;12.00;99.90;;;;;;5098068;28;20059;-73
2023/05/30 04:38:45;;;;;;;13.57;3.30;;;11.90;99.90;;;;;;5115356;28;20280;-73
2023/05/30 04:41:11;;;;;;;12.53;3.57;;;12.00;99.90;;;;;;5115886;28;20323;-73
2023/05/30 04:43:37;;;;;;;13.37;3.43;;;12.00;99.90;;;;;;5115517;28;20282;-73
2023/05/30 04:46:04;;;;;;;12.23;3.40;;;12.00;99.90;;;;;;5097532;28;20289;-73
2023/05/30 04:48:30;;;;;;;12.43;3.00;;;12.00;99.90;;;;;;5115675;28;20274;-73
2023/05/30 04:50:58;;;;;;;17.30;4.27;;;12.00;99.90;;;;;;5115843;28;20296;-73
2023/05/30 04:53:24;;;;;;;13.23;3.40;;;12.00;99.90;;;;;;5080526;28;20296;-73
2023/05/30 04:55:50;;;;;;;13.63;3.57;;;12.00;99.90;;;;;;5097029;28;20286;-73
2023/05/30 04:58:17;;;;;;;16.20;3.37;;;12.00;99.90;;;;;;5115536;28;20277;-73
2023/05/30 05:00:43;;;;;;;17.43;4.33;;;12.00;99.90;;;;;;5115050;28;20048;-73
2023/05/30 05:03:09;;;;;;;15.03;3.60;;;12.10;99.90;;;;;;5115663;28;20285;-73
2023/05/30 05:05:35;;;;;;;15.47;3.07;;;12.10;99.90;;;;;;5115059;28;20276;-73
2023/05/30 05:08:01;;;;;;;12.60;3.53;;;12.10;99.90;;;;;;5115142;28;20134;-73
2023/05/30 05:10:27;;;;;;;13.70;4.00;;;12.10;99.90;;;;;;5115262;28;20498;-73
2023/05/30 05:12:52;;;;;;;14.87;4.27;;;12.10;99.90;;;;;;5096740;28;20286;-73
2023/05/30 05:15:18;;;;;;;10.47;3.03;;;12.20;99.90;;;;;;5115234;28;20039;-73
2023/05/30 05:17:44;;;;;;;13.83;3.40;;;12.20;99.90;;;;;;5130126;27;20567;-73
2023/05/30 05:20:12;;;;;;;13.90;4.37;;;12.20;99.90;;;;;;5114666;28;20138;-73
2023/05/30 05:22:37;;;;;;;17.23;3.87;;;12.20;99.90;;;;;;5096643;28;20044;-74
2023/05/30 05:25:04;;;;;;;12.83;4.00;;;12.20;99.90;;;;;;5095673;28;20296;-74
2023/05/30 05:27:30;;;;;;;11.67;2.67;;;12.20;99.90;;;;;;5114894;28;20043;-74
2023/05/30 05:29:56;;;;;;;9.83;3.03;;;12.20;99.90;;;;;;5114538;28;20678;-74
2023/05/30 05:32:21;;;;;;;9.63;3.07;;;12.10;99.90;;;;;;5096944;28;20519;-74
2023/05/30 05:34:47;;;;;;;9.30;2.60;;;12.20;99.90;;;;;;5114553;28;20055;-74
2023/05/30 05:37:13;;;;;;;8.73;2.60;;;12.10;99.90;;;;;;5114778;28;20066;-74
2023/05/30 05:39:39;;;;;;;7.27;2.40;;;12.10;99.90;;;;;;5130334;27;20537;-73
2023/05/30 05:42:05;;;;;;;8.70;2.40;;;12.10;99.90;;;;;;5096418;28;20051;-74
2023/05/30 05:44:31;;;;;;;7.23;2.87;;;12.10;99.90;;;;;;5114617;28;20044;-74
2023/05/30 05:46:57;;;;;;;9.40;2.60;;;12.10;99.90;;;;;;5114259;28;20737;-74
2023/05/30 05:49:23;;;;;;;13.50;2.90;;;12.10;99.90;;;;;;5114451;28;20180;-74
2023/05/30 05:51:48;;;;;;;6.87;2.30;;;12.10;99.90;;;;;;5114143;28;20039;-74
2023/05/30 05:54:15;;;;;;;11.03;2.80;;;12.10;99.90;;;;;;5114458;28;20050;-74
2023/05/30 05:56:40;;;;;;;10.37;3.13;;;12.10;99.90;;;;;;5096167;28;20112;-74
2023/05/30 05:59:06;;;;;;;7.77;2.30;;;12.10;99.90;;;;;;5096190;28;20764;-74
2023/05/30 06:01:32;;;;;;;9.60;2.87;;;12.10;99.90;;;;;;5114143;28;20122;-73
2023/05/30 06:04:08;;;;;;;11.03;2.77;;;12.10;99.90;;;;;;5113927;28;20443;-74
2023/05/30 06:06:34;;;;;;;7.80;2.27;;;12.10;99.90;;;;;;5096181;28;20044;-73
2023/05/30 06:09:00;;;;;;;12.63;2.60;;;12.20;99.90;;;;;;5113819;28;20288;-73
2023/05/30 06:11:26;;;;;;;8.40;3.13;;;12.20;99.90;;;;;;5113711;28;20278;-74
2023/05/30 06:13:51;;;;;;;10.47;3.03;;;12.20;99.90;;;;;;5113648;28;20050;-73
2023/05/30 06:16:17;;;;;;;10.07;2.60;;;12.20;99.90;;;;;;5113953;28;20642;-74
2023/05/30 06:18:43;;;;;;;10.10;3.27;;;12.20;99.90;;;;;;5113837;28;20047;-73
2023/05/30 06:21:10;;;;;;;13.70;3.53;;;12.20;99.90;;;;;;5113545;28;20485;-73
2023/05/30 06:23:37;;;;;;;10.87;2.67;;;12.20;99.90;;;;;;5096068;28;20462;-74
2023/05/30 06:26:02;;;;;;;11.30;2.70;;;12.30;99.90;;;;;;5113380;28;20277;-75
2023/05/30 06:28:28;;;;;;;10.17;2.43;;;12.30;99.90;;;;;;5113846;28;20334;-75
2023/05/30 06:30:54;;;;;;;10.33;2.20;;;12.30;99.90;;;;;;5113570;28;20047;-75
2023/05/30 06:33:22;;;;;;;8.10;2.37;;;12.30;99.90;;;;;;5095633;28;20104;-75
2023/05/30 06:35:48;;;;;;;7.23;2.50;;;12.30;99.90;;;;;;5113385;28;20047;-75
2023/05/30 06:38:16;;;;;;;6.53;2.20;;;12.40;99.90;;;;;;5129820;27;20345;-75
2023/05/30 06:40:42;;;;;;;12.53;2.60;;;12.40;99.90;;;;;;5129399;27;20050;-75
2023/05/30 06:43:07;;;;;;;9.37;2.67;;;12.40;99.90;;;;;;5113643;28;20277;-73
2023/05/30 06:45:33;;;;;;;9.70;2.77;;;12.50;99.90;;;;;;5113018;28;20727;-72
2023/05/30 06:48:01;;;;;;;9.83;2.40;;;12.50;99.90;;;;;;5110083;28;20071;-75
2023/05/30 06:50:27;;;;;;;9.40;2.53;;;12.50;99.90;;;;;;5095239;28;20162;-74
2023/05/30 06:52:53;;;;;;;7.47;2.20;;;12.40;99.90;;;;;;5113432;28;20284;-75
2023/05/30 06:55:18;;;;;;;8.50;2.53;;;12.50;99.90;;;;;;5113413;28;20753;-74
2023/05/30 06:57:44;;;;;;;7.27;2.20;;;12.50;99.90;;;;;;5095061;28;20051;-76
2023/05/30 07:00:11;;;;;;;6.77;1.97;;;12.50;99.90;;;;;;5095856;28;20473;-78
2023/05/30 07:02:37;;;;;;;6.10;1.90;;;12.50;99.90;;;;;;5113411;28;20300;-78
2023/05/30 07:05:03;;;;;;;7.60;2.00;;;12.50;99.90;;;;;;5129416;28;20293;-77
2023/05/30 07:07:28;;;;;;;5.60;2.13;;;12.50;99.90;;;;;;5095576;28;20479;-77
2023/05/30 07:09:54;;;;;;;9.87;2.57;;;12.50;99.90;;;;;;5095046;28;20479;-77
2023/05/30 07:12:20;;;;;;;7.53;1.80;;;12.50;99.90;;;;;;5113490;28;20052;-77
2023/05/30 07:14:46;;;;;;;5.07;1.90;;;12.60;99.90;;;;;;5129321;28;20062;-77
2023/05/30 07:17:12;;;;;;;7.90;2.00;;;12.60;99.90;;;;;;5113386;28;20044;-78
2023/05/30 07:19:37;;;;;;;8.70;2.50;;;12.60;99.90;;;;;;5113172;28;20690;-77
2023/05/30 07:22:03;;;;;;;7.03;2.63;;;12.60;99.90;;;;;;5112954;28;20055;-77
2023/05/30 07:24:29;;;;;;;8.57;2.30;;;12.60;99.90;;;;;;5095143;28;20051;-77
2023/05/30 07:26:55;;;;;;;8.90;2.50;;;12.60;99.90;;;;;;5095245;28;20130;-76
2023/05/30 07:29:20;;;;;;;6.50;2.50;;;12.60;99.90;;;;;;5129300;28;20108;-76
2023/05/30 07:31:46;;;;;;;5.83;2.00;;;12.60;99.90;;;;;;5129023;28;20047;-76
2023/05/30 07:34:12;;;;;;;5.47;2.10;;;12.60;99.90;;;;;;5094859;28;20047;-76
2023/05/30 07:36:38;;;;;;;4.77;2.33;;;12.60;99.90;;;;;;5095014;28;20047;-76
2023/05/30 07:39:03;;;;;;;4.97;2.13;;;12.60;99.90;;;;;;5112831;28;20483;-77
2023/05/30 07:41:29;;;;;;;9.03;2.27;;;12.70;99.90;;;;;;5113029;28;20132;-76
2023/05/30 07:43:55;;;;;;;6.53;2.00;;;12.70;99.90;;;;;;5094741;28;20049;-75
2023/05/30 07:46:22;;;;;;;7.17;2.20;;;12.70;99.90;;;;;;5078322;28;20048;-77
2023/05/30 07:48:48;;;;;;;5.33;1.73;;;12.70;99.90;;;;;;5098125;28;20044;-77
2023/05/30 07:51:13;;;;;;;6.30;1.70;;;12.70;99.90;;;;;;5116632;28;20355;-77
2023/05/30 07:53:39;;;;;;;8.50;2.37;;;12.70;99.90;;;;;;5098944;28;20082;-77
2023/05/30 07:56:05;;;;;;;8.27;2.40;;;12.70;99.90;;;;;;5098538;28;20047;-78
2023/05/30 07:58:31;;;;;;;6.50;1.90;;;12.70;99.90;;;;;;5116975;28;20114;-77
2023/05/30 08:00:58;;;;;;;6.00;1.60;;;12.70;99.90;;;;;;5116363;28;20039;-76
2023/05/30 08:03:25;;;;;;;6.43;1.70;;;12.70;99.90;;;;;;5116683;28;20039;-77
2023/05/30 08:05:50;;;;;;;5.73;1.70;;;12.80;99.90;;;;;;5098657;28;20300;-77
2023/05/30 08:08:17;;;;;;;5.77;2.00;;;12.90;99.90;;;;;;5098313;28;20290;-78
2023/05/30 08:10:43;;;;;;;5.13;1.50;;;13.00;99.90;;;;;;5065043;28;20056;-76
2023/05/30 08:13:08;;;;;;;7.83;1.97;;;13.10;99.90;;;;;;5116232;28;20599;-77
2023/05/30 08:15:34;;;;;;;6.30;1.90;;;13.20;99.90;;;;;;5116432;28;20047;-77
2023/05/30 08:18:00;;;;;;;5.97;1.70;;;13.40;99.90;;;;;;5098145;28;20091;-75
2023/05/30 08:20:26;;;;;;;5.20;2.03;;;13.50;99.90;;;;;;5116119;28;20059;-75
2023/05/30 08:22:52;;;;;;;5.47;1.60;;;13.60;99.90;;;;;;5116324;28;20288;-73
2023/05/30 08:25:28;;;;;;;5.17;1.43;;;13.60;99.90;;;;;;5115915;28;20277;-74
2023/05/30 08:27:59;;;;;;;4.83;1.77;;;13.60;99.90;;;;;;5115562;28;20052;-77
2023/05/30 08:30:24;;;;;;;4.10;1.80;;;13.70;99.90;;;;;;5113257;28;20331;-74
2023/05/30 08:32:50;;;;;;;4.47;1.87;;;13.70;99.90;;;;;;5115623;28;20784;-75
2023/05/30 08:35:16;;;;;;;4.93;2.17;;;13.70;99.90;;;;;;5097337;28;20353;-73
2023/05/30 08:37:42;;;;;;;4.50;1.80;;;13.80;99.90;;;;;;5115392;28;20490;-74
2023/05/30 08:40:12;;;;;;;7.17;2.30;;;13.70;99.90;;;;;;5096947;28;20468;-75
2023/05/30 08:42:38;;;;;;;5.33;2.03;;;13.60;99.90;;;;;;5115443;28;20051;-75
2023/05/30 08:45:07;;;;;;;3.50;1.77;;;13.60;99.90;;;;;;5109955;28;20278;-75
2023/05/30 08:47:36;;;;;;;6.30;1.83;;;13.50;99.90;;;;;;5115531;28;20291;-74
2023/05/30 08:50:09;;;;;;;6.23;1.83;;;13.40;99.90;;;;;;5080056;28;20352;-76
2023/05/30 08:52:39;;;;;;;4.40;1.77;;;13.50;99.90;;;;;;5098170;28;20277;-76
2023/05/30 08:55:19;;;;;;;2.80;1.00;;;13.80;99.90;;;;;;5097830;28;20286;-77
2023/05/30 08:58:08;;;;;;;2.87;1.00;;;14.10;99.90;;;;;;5098060;28;20329;-76
2023/05/30 09:00:35;;;;;;;2.30;0.87;;;14.20;99.90;;;;;;5114463;28;20392;-77
2023/05/30 09:03:05;;;;;;;3.43;1.23;;;14.20;99.90;;;;;;5097300;28;20426;-69
2023/05/30 09:05:33;;;;;;;3.30;1.13;;;14.30;99.90;;;;;;5115463;28;20281;-70
2023/05/30 09:08:01;;;;;;;2.13;0.97;;;14.40;99.90;;;;;;5114851;28;20760;-70
2023/05/30 09:10:29;;;;;;;2.50;0.83;;;14.60;99.90;;;;;;5115511;28;20559;-70
2023/05/30 09:12:57;;;;;;;1.90;0.80;;;14.70;99.90;;;;;;5115346;28;20284;-69
2023/05/30 09:15:23;;;;;;;3.70;0.77;;;14.80;99.90;;;;;;5114511;28;20701;-78
2023/05/30 09:17:49;;;;;;;2.37;0.70;;;14.80;99.90;;;;;;5096467;28;20837;-72
2023/05/30 09:20:17;;;;;;;2.63;0.80;;;14.70;99.90;;;;;;5114155;28;20297;-76
2023/05/30 09:22:45;;;;;;;3.63;0.97;;;14.70;99.90;;;;;;5095683;28;20761;-76
2023/05/30 09:25:15;;;;;;;1.80;0.90;;;14.60;99.90;;;;;;5080117;28;20702;-76
2023/05/30 09:27:52;;;;;;;4.33;0.80;;;14.60;99.90;;;;;;5096741;28;20787;-76
2023/05/30 09:30:23;;;;;;;2.83;1.10;;;14.60;99.90;;;;;;5096384;28;20282;-75
2023/05/30 09:33:03;;;;;;;4.73;0.97;;;14.70;99.90;;;;;;5114872;28;20300;-75
2023/05/30 09:35:29;;;;;;;4.47;1.10;;;14.80;99.90;;;;;;5096945;28;20138;-75
2023/05/30 09:37:55;;;;;;;1.63;0.90;;;14.90;99.90;;;;;;5114946;28;20360;-75
2023/05/30 09:40:23;;;;;;;2.33;1.00;;;15.00;99.90;;;;;;5114376;28;20127;-75
2023/05/30 09:42:51;;;;;;;3.43;0.90;;;14.90;99.90;;;;;;5096503;28;20284;-75
2023/05/30 09:45:23;;;;;;;4.17;1.00;;;14.90;99.90;;;;;;5096266;28;20296;-75
2023/05/30 09:47:51;;;;;;;3.03;1.00;;;14.90;99.90;;;;;;5114974;28;20662;-75
2023/05/30 09:50:23;;;;;;;2.67;1.10;;;14.70;99.90;;;;;;5114545;28;20305;-75
2023/05/30 09:52:51;;;;;;;2.57;1.00;;;14.70;99.90;;;;;;5114618;28;20277;-75
2023/05/30 09:55:18;;;;;;;1.77;0.80;;;14.50;99.90;;;;;;5096497;28;20330;-74
2023/05/30 09:57:48;;;;;;;2.00;0.90;;;14.50;99.90;;;;;;5114411;28;20282;-77
2023/05/30 10:00:22;;;;;;;1.60;0.90;;;14.50;99.90;;;;;;5114033;28;20315;-75
2023/05/30 10:02:55;;;;;;;3.03;1.63;;;14.50;99.90;;;;;;5114528;28;20601;-75
2023/05/30 10:05:23;;;;;;;1.97;0.90;;;14.40;99.90;;;;;;5114168;28;20273;-75
2023/05/30 10:07:51;;;;;;;3.87;1.30;;;14.40;99.90;;;;;;5114183;28;20317;-74
2023/05/30 10:10:18;;;;;;;4.40;1.80;;;14.50;99.90;;;;;;5095353;28;20777;-75
2023/05/30 10:12:48;;;;;;;2.50;1.20;;;14.60;99.90;;;;;;5114171;28;20347;-75
2023/05/30 10:15:14;;;;;;;3.10;1.13;;;14.70;99.90;;;;;;5095929;28;20290;-75
2023/05/30 10:17:46;;;;;;;3.97;1.27;;;14.70;99.90;;;;;;5095812;28;20288;-75
2023/05/30 10:20:14;;;;;;;3.30;1.30;;;14.70;99.90;;;;;;5095253;28;20297;-75
2023/05/30 10:22:45;;;;;;;4.47;1.10;;;14.70;99.90;;;;;;5096027;28;20296;-76
2023/05/30 10:25:12;;;;;;;3.17;1.10;;;14.50;99.90;;;;;;5095784;28;20611;-77
2023/05/30 10:27:51;;;;;;;2.63;1.17;;;14.40;99.90;;;;;;5095809;28;20285;-77
2023/05/30 10:30:29;;;;;;;3.50;1.10;;;14.40;99.90;;;;;;5113460;28;20902;-70
2023/05/30 10:33:07;;;;;;;2.83;1.20;;;14.20;99.90;;;;;;5095692;28;20281;-77
2023/05/30 10:35:34;;;;;;;2.83;1.10;;;13.90;99.90;;;;;;5095530;28;20736;-76
2023/05/30 10:38:03;;;;;;;3.03;1.40;;;13.80;99.90;;;;;;5113810;28;20278;-76
2023/05/30 10:40:40;;;;;;;4.30;1.33;;;13.70;99.90;;;;;;5095337;28;20309;-77
2023/05/30 10:43:20;;;;;;;2.83;1.50;;;13.80;99.90;;;;;;5078903;28;20342;-76
2023/05/30 10:45:59;;;;;;;4.00;1.40;;;13.90;99.90;;;;;;5113928;28;20358;-77
2023/05/30 10:48:48;;;;;;;2.30;1.10;;;14.00;99.90;;;;;;5113448;28;20281;-77
2023/05/30 10:51:14;;;;;;;2.20;1.20;;;14.00;99.90;;;;;;5113306;28;20302;-74
2023/05/30 10:53:42;;;;;;;3.53;1.23;;;14.10;99.90;;;;;;5095674;28;20316;-74
2023/05/30 10:56:27;;;;;;;4.13;1.30;;;14.10;99.90;;;;;;5095123;28;20391;-72
2023/05/30 10:58:56;;;;;;;3.88;1.27;;;14.20;99.90;;;;;;5111805;28;20281;-72
2023/05/30 11:01:32;;;;;;;2.97;1.30;;;14.30;99.90;;;;;;5109942;28;20114;-72
2023/05/30 11:03:59;;;;;;;3.47;1.13;;;14.40;99.90;;;;;;5113744;28;20308;-72
2023/05/30 11:06:26;;;;;;;4.53;1.40;;;14.40;99.90;;;;;;5078053;28;20883;-72
2023/05/30 11:09:07;;;;;;;2.77;1.17;;;14.40;99.90;;;;;;5095624;28;20310;-72
2023/05/30 11:11:46;;;;;;;2.80;1.07;;;14.40;99.90;;;;;;5095122;28;20336;-71
2023/05/30 11:14:13;;;;;;;3.07;1.10;;;14.30;99.90;;;;;;5113482;28;20314;-71
2023/05/30 11:16:54;;;;;;;3.07;1.20;;;14.40;99.90;;;;;;5113296;28;20277;-72
2023/05/30 11:19:39;;;;;;;4.37;1.00;;;14.40;99.90;;;;;;5129130;28;20773;-72
2023/05/30 11:22:17;;;;;;;2.40;1.25;;;14.40;99.90;;;;;;5113514;28;20283;-72
2023/05/30 11:24:44;;;;;;;2.43;0.80;;;14.40;99.90;;;;;;5099603;28;20442;-73
2023/05/30 11:27:12;;;;;;;3.80;1.00;;;14.40;99.90;;;;;;5117383;28;20342;-70
2023/05/30 11:29:43;;;;;;;1.83;0.90;;;14.50;99.90;;;;;;5116458;28;20633;-74
2023/05/30 11:32:10;;;;;;;2.53;1.20;;;14.60;99.90;;;;;;5116499;28;20339;-73
2023/05/30 11:34:37;;;;;;;3.63;1.10;;;14.70;99.90;;;;;;5115923;28;20306;-74
2023/05/30 11:37:06;;;;;;;4.07;1.30;;;14.90;99.90;;;;;;5097648;28;20342;-74
2023/05/30 11:39:36;;;;;;;2.33;1.10;;;15.00;99.90;;;;;;5116252;28;20277;-74
2023/05/30 11:42:05;;;;;;;2.60;1.33;;;15.10;99.90;;;;;;5098543;28;20794;-73
2023/05/30 11:44:31;;;;;;;6.40;1.53;;;15.00;99.90;;;;;;5098280;28;20788;-73
2023/05/30 11:47:10;;;;;;;2.57;1.30;;;14.90;99.90;;;;;;5116455;28;20277;-73
2023/05/30 11:49:36;;;;;;;3.90;1.30;;;14.90;99.90;;;;;;5116720;28;20273;-73
2023/05/30 11:52:02;;;;;;;2.80;1.30;;;14.90;99.90;;;;;;5116925;28;20327;-73
2023/05/30 11:54:28;;;;;;;5.03;1.93;;;14.80;99.90;;;;;;5116870;28;20273;-73
2023/05/30 11:56:57;;;;;;;2.30;1.33;;;14.80;99.90;;;;;;5098874;28;20075;-73
2023/05/30 11:59:27;;;;;;;2.47;1.40;;;14.90;99.90;;;;;;5098578;28;20097;-73
2023/05/30 12:01:57;;;;;;;2.87;1.50;;;15.00;99.90;;;;;;5116740;28;20305;-73
2023/05/30 12:04:31;;;;;;;3.07;1.27;;;15.10;99.90;;;;;;5081874;28;20286;-73
2023/05/30 12:07:04;;;;;;;3.63;1.87;;;15.20;99.90;;;;;;5116990;28;20309;-73
2023/05/30 12:09:39;;;;;;;3.23;1.30;;;15.20;99.90;;;;;;5116560;28;20615;-73
2023/05/30 12:12:06;;;;;;;4.63;1.47;;;15.20;99.90;;;;;;5116599;28;20337;-73
2023/05/30 12:14:44;;;;;;;3.70;1.70;;;15.30;99.90;;;;;;5081504;28;20296;-73
2023/05/30 12:17:16;;;;;;;3.07;1.40;;;15.40;99.90;;;;;;5098681;28;20292;-73
2023/05/30 12:19:45;;;;;;;3.60;1.30;;;15.40;99.90;;;;;;5097699;28;20364;-73
2023/05/30 12:22:11;;;;;;;3.53;1.50;;;15.50;99.90;;;;;;5098480;28;20325;-73
2023/05/30 12:24:38;;;;;;;2.13;1.20;;;15.60;99.90;;;;;;5097912;28;20293;-73
2023/05/30 12:27:08;;;;;;;2.57;1.40;;;15.70;99.90;;;;;;5098212;28;20285;-73
2023/05/30 12:29:34;;;;;;;2.37;1.33;;;15.70;99.90;;;;;;5081396;28;20285;-73
2023/05/30 12:32:04;;;;;;;3.30;1.40;;;15.70;99.90;;;;;;5116127;28;20319;-73
2023/05/30 12:34:46;;;;;;;2.30;1.00;;;15.70;99.90;;;;;;5115875;28;20281;-73
2023/05/30 12:37:15;;;;;;;4.33;1.27;;;15.60;99.90;;;;;;5099158;28;20277;-73
2023/05/30 12:39:49;;;;;;;2.43;1.17;;;15.60;99.90;;;;;;5115766;28;20277;-74
2023/05/30 12:42:21;;;;;;;2.78;1.20;;;15.50;99.90;;;;;;5098028;28;20782;-73
2023/05/30 12:44:49;;;;;;;2.53;1.30;;;15.40;99.90;;;;;;5116064;28;20047;-73
2023/05/30 12:47:15;;;;;;;2.23;1.40;;;15.30;99.90;;;;;;5097897;28;20591;-73